createdAt,value
2018-12-26T00:02:21.714Z,10.73
2018-12-26T00:04:47.993Z,12.47
2018-12-26T00:07:14.224Z,12.27
2018-12-26T00:09:40.485Z,12.53
2018-12-26T00:12:06.716Z,11.47
2018-12-26T00:14:33.326Z,11.67
2018-12-26T00:16:59.921Z,11.20
2018-12-26T00:19:26.659Z,11.47
2018-12-26T00:21:52.886Z,11.10
2018-12-26T00:24:19.556Z,11.13
2018-12-26T00:26:46.161Z,10.90
2018-12-26T00:29:12.729Z,11.10
2018-12-26T00:31:38.969Z,11.00
2018-12-26T00:34:05.552Z,15.70
2018-12-26T00:36:32.170Z,12.83
2018-12-26T00:38:58.394Z,13.67
2018-12-26T00:41:24.957Z,11.57
2018-12-26T00:43:51.222Z,12.00
2018-12-26T00:46:17.509Z,9.60
2018-12-26T00:48:44.119Z,11.73
2018-12-26T00:51:10.770Z,12.13
2018-12-26T00:53:37.001Z,10.43
2018-12-26T00:56:10.391Z,11.17
2018-12-26T00:58:31.685Z,12.80
2018-12-26T01:00:58.309Z,11.60
2018-12-26T01:03:25.203Z,13.50
2018-12-26T01:05:51.458Z,12.87
2018-12-26T01:08:17.706Z,11.37
2018-12-26T01:10:43.966Z,12.07
2018-12-26T01:13:10.197Z,11.97
2018-12-26T01:15:36.818Z,11.37
2018-12-26T01:18:03.047Z,12.43
2018-12-26T01:20:29.573Z,13.93
2018-12-26T01:22:58.242Z,11.93
2018-12-26T01:25:24.502Z,12.30
2018-12-26T01:27:51.894Z,12.70
2018-12-26T01:30:18.529Z,11.37
2018-12-26T01:32:45.122Z,14.03
2018-12-26T01:35:11.957Z,13.57
2018-12-26T01:37:38.228Z,12.60
2018-12-26T01:40:04.453Z,13.30
2018-12-26T01:42:31.080Z,11.33
2018-12-26T01:44:57.343Z,11.80
2018-12-26T01:47:23.603Z,13.17
2018-12-26T01:49:49.841Z,14.50
2018-12-26T01:52:16.507Z,11.90
2018-12-26T01:54:42.735Z,14.03
2018-12-26T01:57:09.301Z,12.90
2018-12-26T01:59:35.521Z,12.50
2018-12-26T02:02:02.154Z,14.83
2018-12-26T02:04:29.857Z,14.07
2018-12-26T02:06:56.485Z,13.33
2018-12-26T02:09:22.729Z,13.60
2018-12-26T02:11:49.342Z,12.93
2018-12-26T02:14:15.585Z,13.37
2018-12-26T02:16:41.843Z,14.30
2018-12-26T02:19:08.437Z,12.87
2018-12-26T02:21:34.902Z,12.00
2018-12-26T02:24:01.132Z,13.07
2018-12-26T02:26:36.165Z,11.80
2018-12-26T02:28:56.130Z,11.70
2018-12-26T02:31:22.354Z,12.20
2018-12-26T02:33:48.974Z,14.57
2018-12-26T02:36:15.569Z,13.23
2018-12-26T02:38:42.194Z,12.67
2018-12-26T02:41:08.771Z,13.37
2018-12-26T02:43:35.030Z,12.63
2018-12-26T02:46:01.510Z,11.37
2018-12-26T02:48:28.421Z,14.33
2018-12-26T02:50:54.967Z,11.90
2018-12-26T02:53:21.258Z,13.27
2018-12-26T02:55:47.841Z,12.53
2018-12-26T02:58:14.670Z,12.00
2018-12-26T03:00:40.893Z,12.17
2018-12-26T03:03:07.170Z,13.70
2018-12-26T03:05:33.406Z,12.17
2018-12-26T03:07:59.669Z,11.87
2018-12-26T03:10:26.268Z,11.53
2018-12-26T03:12:52.888Z,13.03
2018-12-26T03:15:19.115Z,13.30
2018-12-26T03:17:45.735Z,11.10
2018-12-26T03:20:12.273Z,10.33
2018-12-26T03:22:38.545Z,10.47
2018-12-26T03:25:04.882Z,13.07
2018-12-26T03:27:31.495Z,11.17
2018-12-26T03:29:58.102Z,12.77
2018-12-26T03:32:24.440Z,10.83
2018-12-26T03:34:50.696Z,12.50
2018-12-26T03:37:17.294Z,15.53
2018-12-26T03:39:43.546Z,13.50
2018-12-26T03:42:10.141Z,13.27
2018-12-26T03:44:37.879Z,10.50
2018-12-26T03:47:04.753Z,10.30
2018-12-26T03:49:31.569Z,15.00
2018-12-26T03:51:57.818Z,12.70
2018-12-26T03:54:24.430Z,12.10
2018-12-26T03:56:50.661Z,11.27
2018-12-26T03:59:17.066Z,11.60
2018-12-26T04:01:43.610Z,11.40
2018-12-26T04:04:10.082Z,10.90
2018-12-26T04:06:36.412Z,9.70
2018-12-26T04:09:04.936Z,12.60
2018-12-26T04:11:31.533Z,12.53
2018-12-26T04:13:57.808Z,12.60
2018-12-26T04:16:25.321Z,14.43
2018-12-26T04:18:51.573Z,11.47
2018-12-26T04:21:18.157Z,12.67
2018-12-26T04:23:44.877Z,10.50
2018-12-26T04:26:11.464Z,9.10
2018-12-26T04:28:38.085Z,10.20
2018-12-26T04:31:04.687Z,10.97
2018-12-26T04:33:30.921Z,9.13
2018-12-26T04:35:57.521Z,11.10
2018-12-26T04:38:24.116Z,11.13
2018-12-26T04:40:50.378Z,11.20
2018-12-26T04:43:16.971Z,11.40
2018-12-26T04:45:43.682Z,12.57
2018-12-26T04:48:10.318Z,12.77
2018-12-26T04:50:36.573Z,10.40
2018-12-26T04:53:03.194Z,10.73
2018-12-26T04:55:29.472Z,12.73
2018-12-26T04:57:55.697Z,10.67
2018-12-26T05:00:22.319Z,11.67
2018-12-26T05:02:48.902Z,11.30
2018-12-26T05:05:15.576Z,11.33
2018-12-26T05:07:42.552Z,13.33
2018-12-26T05:10:08.959Z,13.17
2018-12-26T05:12:35.542Z,11.27
2018-12-26T05:15:02.252Z,11.53
2018-12-26T05:17:28.762Z,11.30
2018-12-26T05:19:55.119Z,10.70
2018-12-26T05:22:21.338Z,11.53
2018-12-26T05:24:47.957Z,11.33
2018-12-26T05:27:14.917Z,14.07
2018-12-26T05:29:41.542Z,9.40
2018-12-26T05:32:08.134Z,13.13
2018-12-26T05:34:34.769Z,11.40
2018-12-26T05:37:01.366Z,10.70
2018-12-26T05:39:27.769Z,8.60
2018-12-26T05:41:53.946Z,13.27
2018-12-26T05:44:20.486Z,11.87
2018-12-26T05:46:47.150Z,9.97
2018-12-26T05:49:14.016Z,10.47
2018-12-26T05:51:40.681Z,20.03
2018-12-26T05:54:06.914Z,14.27
2018-12-26T05:56:33.177Z,9.57
2018-12-26T05:58:59.765Z,10.87
2018-12-26T06:01:26.037Z,10.60
2018-12-26T06:03:52.634Z,10.07
2018-12-26T06:06:20.058Z,9.27
2018-12-26T06:08:46.301Z,9.47
2018-12-26T06:11:12.949Z,8.73
2018-12-26T06:13:39.182Z,9.10
2018-12-26T06:16:05.439Z,9.57
2018-12-26T06:18:31.761Z,10.10
2018-12-26T06:20:58.381Z,9.77
2018-12-26T06:23:24.594Z,10.53
2018-12-26T06:25:50.964Z,8.50
2018-12-26T06:28:17.552Z,10.70
2018-12-26T06:30:44.171Z,8.97
2018-12-26T06:33:10.410Z,10.30
2018-12-26T06:35:37.043Z,9.47
2018-12-26T06:38:03.625Z,8.30
2018-12-26T06:40:29.866Z,8.93
2018-12-26T06:42:56.493Z,9.17
2018-12-26T06:45:22.749Z,9.13
2018-12-26T06:47:49.038Z,9.43
2018-12-26T06:50:15.269Z,8.23
2018-12-26T06:52:41.955Z,9.13
2018-12-26T06:55:08.542Z,8.37
2018-12-26T06:57:35.149Z,10.53
2018-12-26T07:00:03.646Z,8.07
2018-12-26T07:02:30.265Z,9.13
2018-12-26T07:04:56.859Z,8.03
2018-12-26T07:07:23.109Z,10.53
2018-12-26T07:09:49.701Z,9.17
2018-12-26T07:12:15.984Z,8.20
2018-12-26T07:14:42.211Z,10.73
2018-12-26T07:17:08.842Z,10.77
2018-12-26T07:19:35.073Z,9.00
2018-12-26T07:22:01.742Z,9.00
2018-12-26T07:24:28.330Z,9.50
2018-12-26T07:26:54.958Z,8.40
2018-12-26T07:29:21.545Z,16.07
2018-12-26T07:31:47.808Z,9.37
2018-12-26T07:34:14.318Z,9.30
2018-12-26T07:36:40.590Z,8.30
2018-12-26T07:39:07.182Z,10.77
2018-12-26T07:41:33.768Z,13.27
2018-12-26T07:44:00.393Z,9.33
2018-12-26T07:46:27.059Z,11.87
2018-12-26T07:48:53.682Z,10.73
2018-12-26T07:51:20.386Z,8.10
2018-12-26T07:53:46.640Z,11.77
2018-12-26T07:56:13.235Z,9.50
2018-12-26T07:58:39.853Z,9.00
2018-12-26T08:01:06.343Z,7.90
2018-12-26T08:03:32.972Z,10.00
2018-12-26T08:05:59.565Z,7.93
2018-12-26T08:08:26.181Z,9.37
2018-12-26T08:10:52.713Z,10.27
2018-12-26T08:13:19.339Z,7.87
2018-12-26T08:15:45.572Z,7.77
2018-12-26T08:18:12.209Z,8.20
2018-12-26T08:20:38.417Z,9.20
2018-12-26T08:23:05.049Z,6.93
2018-12-26T08:25:31.631Z,9.73
2018-12-26T08:27:57.922Z,9.70
2018-12-26T08:30:24.547Z,8.57
2018-12-26T08:32:50.802Z,10.20
2018-12-26T08:35:17.385Z,9.70
2018-12-26T08:37:43.974Z,10.53
2018-12-26T08:40:10.232Z,7.30
2018-12-26T08:42:36.825Z,9.00
2018-12-26T08:45:03.549Z,9.07
2018-12-26T08:47:30.169Z,8.50
2018-12-26T08:49:56.694Z,10.63
2018-12-26T08:52:22.917Z,10.23
2018-12-26T08:54:49.220Z,10.53
2018-12-26T08:57:15.579Z,8.10
2018-12-26T08:59:42.207Z,11.03
2018-12-26T09:02:08.798Z,7.23
2018-12-26T09:04:35.046Z,8.10
2018-12-26T09:07:01.278Z,7.23
2018-12-26T09:09:27.902Z,7.67
2018-12-26T09:11:54.494Z,7.50
2018-12-26T09:14:20.755Z,8.90
2018-12-26T09:16:47.338Z,8.80
2018-12-26T09:19:13.961Z,8.03
2018-12-26T09:21:40.472Z,8.20
2018-12-26T09:24:06.724Z,8.27
2018-12-26T09:26:33.061Z,8.20
2018-12-26T09:28:59.321Z,7.70
2018-12-26T09:31:25.925Z,7.07
2018-12-26T09:33:52.146Z,9.00
2018-12-26T09:36:18.511Z,8.50
2018-12-26T09:38:44.749Z,9.37
2018-12-26T09:41:11.007Z,7.33
2018-12-26T09:43:37.589Z,7.40
2018-12-26T09:46:04.477Z,8.73
2018-12-26T09:48:31.087Z,9.17
2018-12-26T09:50:57.693Z,9.33
2018-12-26T09:53:24.312Z,7.97
2018-12-26T09:55:50.935Z,7.53
2018-12-26T09:58:17.518Z,7.83
2018-12-26T10:00:43.793Z,8.17
2018-12-26T10:03:10.383Z,9.03
2018-12-26T10:05:36.997Z,6.33
2018-12-26T10:08:03.607Z,7.90
2018-12-26T10:10:30.213Z,6.73
2018-12-26T10:12:56.462Z,7.30
2018-12-26T10:15:23.070Z,7.67
2018-12-26T10:17:49.299Z,8.50
2018-12-26T10:20:15.909Z,8.10
2018-12-26T10:22:42.505Z,6.37
2018-12-26T10:25:09.121Z,6.17
2018-12-26T10:27:36.025Z,7.23
2018-12-26T10:30:03.337Z,7.43
2018-12-26T10:32:29.557Z,6.70
2018-12-26T10:34:55.839Z,8.03
2018-12-26T10:37:22.422Z,7.90
2018-12-26T10:39:49.019Z,9.63
2018-12-26T10:42:15.641Z,6.77
2018-12-26T10:44:42.234Z,8.10
2018-12-26T10:47:08.499Z,8.20
2018-12-26T10:49:35.108Z,8.60
2018-12-26T10:52:01.730Z,8.87
2018-12-26T10:54:28.347Z,8.83
2018-12-26T10:56:54.602Z,8.63
2018-12-26T10:59:20.841Z,8.30
2018-12-26T11:01:47.457Z,9.73
2018-12-26T11:04:13.702Z,7.83
2018-12-26T11:06:40.305Z,8.30
2018-12-26T11:09:06.899Z,9.27
2018-12-26T11:11:33.758Z,8.50
2018-12-26T11:14:00.357Z,8.43
2018-12-26T11:16:26.626Z,7.63
2018-12-26T11:18:53.364Z,7.97
2018-12-26T11:21:19.621Z,9.40
2018-12-26T11:23:45.853Z,8.83
2018-12-26T11:26:12.463Z,7.57
2018-12-26T11:28:39.165Z,8.47
2018-12-26T11:31:05.782Z,8.53
2018-12-26T11:33:31.997Z,7.23
2018-12-26T11:35:58.273Z,9.73
2018-12-26T11:38:24.508Z,7.20
2018-12-26T11:40:51.099Z,10.83
2018-12-26T11:43:17.720Z,7.87
2018-12-26T11:45:44.318Z,8.30
2018-12-26T11:48:10.628Z,9.00
2018-12-26T11:50:37.221Z,8.20
2018-12-26T11:53:04.638Z,6.80
2018-12-26T11:55:31.176Z,7.37
2018-12-26T11:57:57.896Z,9.53
2018-12-26T12:00:24.117Z,8.30
2018-12-26T12:02:50.481Z,9.50
2018-12-26T12:05:17.087Z,11.23
2018-12-26T12:07:43.695Z,8.20
2018-12-26T12:10:09.951Z,8.20
2018-12-26T12:12:36.841Z,10.37
2018-12-26T12:15:03.535Z,10.43
2018-12-26T12:17:30.147Z,10.77
2018-12-26T12:19:56.721Z,8.77
2018-12-26T12:22:22.999Z,10.00
2018-12-26T12:24:49.506Z,8.40
2018-12-26T12:27:16.133Z,8.70
2018-12-26T12:29:42.745Z,10.03
2018-12-26T12:32:08.999Z,9.93
2018-12-26T12:34:35.337Z,9.30
2018-12-26T12:37:01.951Z,9.80
2018-12-26T12:39:28.637Z,8.60
2018-12-26T12:41:54.857Z,8.37
2018-12-26T12:44:21.639Z,8.23
2018-12-26T12:46:48.566Z,9.17
2018-12-26T12:49:15.222Z,9.33
2018-12-26T12:51:41.818Z,7.57
2018-12-26T12:54:08.102Z,11.13
2018-12-26T12:56:34.330Z,9.03
2018-12-26T12:59:00.968Z,10.13
2018-12-26T13:01:27.404Z,9.77
2018-12-26T13:03:53.656Z,9.57
2018-12-26T13:06:20.245Z,10.10
2018-12-26T13:08:46.968Z,8.67
2018-12-26T13:11:13.149Z,8.07
2018-12-26T13:13:39.409Z,8.20
2018-12-26T13:16:06.026Z,8.83
2018-12-26T13:18:32.289Z,9.27
2018-12-26T13:21:00.788Z,9.93
2018-12-26T13:23:27.397Z,7.57
2018-12-26T13:25:53.998Z,7.23
2018-12-26T13:28:20.242Z,8.73
2018-12-26T13:30:46.469Z,7.90
2018-12-26T13:33:12.742Z,7.00
2018-12-26T13:35:39.332Z,6.77
2018-12-26T13:38:05.583Z,5.77
2018-12-26T13:40:32.179Z,7.73
2018-12-26T13:42:58.768Z,7.07
2018-12-26T13:45:25.393Z,7.67
2018-12-26T13:47:52.011Z,7.87
2018-12-26T13:50:18.661Z,5.77
2018-12-26T13:52:45.249Z,7.17
2018-12-26T13:55:11.530Z,6.40
2018-12-26T13:57:38.112Z,5.93
2018-12-26T14:00:07.581Z,5.73
2018-12-26T14:02:33.814Z,7.00
2018-12-26T14:05:00.425Z,6.80
2018-12-26T14:07:27.900Z,7.00
2018-12-26T14:09:54.550Z,6.83
2018-12-26T14:12:21.133Z,6.90
2018-12-26T14:14:47.758Z,8.20
2018-12-26T14:17:14.355Z,5.70
2018-12-26T14:19:40.625Z,7.60
2018-12-26T14:22:07.222Z,7.37
2018-12-26T14:24:33.514Z,7.80
2018-12-26T14:26:59.737Z,8.10
2018-12-26T14:29:26.355Z,8.33
2018-12-26T14:31:52.941Z,9.93
2018-12-26T14:34:19.202Z,9.23
2018-12-26T14:36:45.789Z,8.97
2018-12-26T14:39:12.045Z,9.63
2018-12-26T14:41:38.281Z,9.07
2018-12-26T14:44:04.881Z,9.00
2018-12-26T14:46:31.769Z,9.40
2018-12-26T14:48:58.390Z,11.23
2018-12-26T14:51:26.483Z,8.63
2018-12-26T14:53:52.702Z,11.37
2018-12-26T14:56:19.320Z,9.87
2018-12-26T14:58:45.906Z,11.10
2018-12-26T15:01:12.572Z,10.40
2018-12-26T15:03:39.150Z,9.57
2018-12-26T15:06:05.771Z,9.77
2018-12-26T15:08:32.001Z,9.03
2018-12-26T15:10:58.269Z,10.53
2018-12-26T15:13:24.855Z,9.57
2018-12-26T15:15:51.472Z,10.03
2018-12-26T15:18:18.069Z,10.90
2018-12-26T15:20:44.356Z,10.30
2018-12-26T15:23:10.633Z,10.20
2018-12-26T15:25:36.845Z,11.60
2018-12-26T15:28:03.079Z,12.60
2018-12-26T15:30:29.693Z,10.47
2018-12-26T15:32:56.281Z,12.90
2018-12-26T15:35:22.545Z,10.90
2018-12-26T15:37:49.246Z,11.83
2018-12-26T15:40:15.869Z,13.43
2018-12-26T15:42:42.102Z,11.10
2018-12-26T15:45:08.334Z,12.10
2018-12-26T15:47:34.954Z,13.40
2018-12-26T15:50:01.727Z,12.93
2018-12-26T15:52:27.981Z,12.67
2018-12-26T15:54:54.239Z,15.30
2018-12-26T15:57:20.849Z,14.03
2018-12-26T15:59:47.083Z,13.93
2018-12-26T16:02:13.802Z,13.20
2018-12-26T16:04:40.382Z,13.07
2018-12-26T16:07:07.001Z,14.50
2018-12-26T16:09:33.586Z,12.97
2018-12-26T16:12:01.970Z,14.23
2018-12-26T16:14:28.557Z,12.47
2018-12-26T16:16:55.227Z,14.43
2018-12-26T16:19:21.761Z,13.70
2018-12-26T16:21:48.361Z,13.13
2018-12-26T16:24:14.958Z,15.73
2018-12-26T16:26:41.230Z,13.27
2018-12-26T16:29:07.453Z,13.13
2018-12-26T16:31:33.707Z,13.37
2018-12-26T16:34:00.315Z,13.83
2018-12-26T16:36:26.930Z,12.17
2018-12-26T16:38:53.154Z,13.33
2018-12-26T16:41:19.749Z,14.27
2018-12-26T16:43:46.370Z,10.77
2018-12-26T16:46:12.665Z,14.07
2018-12-26T16:48:39.244Z,12.73
2018-12-26T16:51:05.506Z,12.20
2018-12-26T16:53:32.137Z,11.33
2018-12-26T16:55:58.406Z,13.53
2018-12-26T16:58:24.670Z,13.57
2018-12-26T17:00:55.015Z,12.60
2018-12-26T17:03:19.340Z,12.70
2018-12-26T17:05:45.603Z,15.53
2018-12-26T17:08:12.227Z,12.70
2018-12-26T17:10:38.807Z,14.87
2018-12-26T17:13:05.428Z,14.23
2018-12-26T17:15:31.749Z,13.97
2018-12-26T17:17:58.366Z,15.90
2018-12-26T17:20:25.046Z,15.43
2018-12-26T17:22:51.317Z,15.60
2018-12-26T17:25:17.550Z,16.07
2018-12-26T17:27:44.171Z,12.70
2018-12-26T17:30:10.395Z,13.77
2018-12-26T17:32:37.012Z,13.30
2018-12-26T17:35:03.906Z,13.40
2018-12-26T17:37:30.509Z,14.00
2018-12-26T17:39:56.733Z,13.67
2018-12-26T17:42:23.719Z,14.53
2018-12-26T17:44:49.950Z,12.50
2018-12-26T17:47:16.556Z,15.53
2018-12-26T17:49:43.193Z,15.47
2018-12-26T17:52:09.761Z,16.03
2018-12-26T17:54:39.018Z,15.57
2018-12-26T17:57:05.629Z,12.97
2018-12-26T17:59:38.826Z,13.70
2018-12-26T18:02:08.893Z,17.33
2018-12-26T18:04:35.155Z,14.67
2018-12-26T18:07:01.393Z,13.70
2018-12-26T18:09:27.653Z,11.90
2018-12-26T18:11:54.242Z,15.03
2018-12-26T18:14:20.845Z,14.40
2018-12-26T18:16:47.434Z,13.37
2018-12-26T18:19:14.054Z,13.20
2018-12-26T18:21:40.637Z,16.93
2018-12-26T18:24:07.257Z,15.07
2018-12-26T18:26:33.487Z,13.10
2018-12-26T18:28:59.762Z,14.07
2018-12-26T18:31:26.345Z,14.43
2018-12-26T18:33:52.583Z,18.13
2018-12-26T18:36:19.186Z,12.27
2018-12-26T18:38:45.503Z,12.90
2018-12-26T18:41:12.030Z,16.07
2018-12-26T18:43:38.314Z,13.17
2018-12-26T18:46:04.508Z,12.13
2018-12-26T18:48:31.179Z,14.30
2018-12-26T18:50:57.806Z,12.53
2018-12-26T18:53:24.042Z,13.57
2018-12-26T18:55:50.694Z,14.07
2018-12-26T18:58:17.283Z,16.73
2018-12-26T19:00:43.547Z,14.23
2018-12-26T19:03:10.049Z,13.03
2018-12-26T19:05:36.327Z,12.67
2018-12-26T19:08:02.913Z,13.27
2018-12-26T19:10:29.181Z,13.60
2018-12-26T19:12:55.408Z,13.27
2018-12-26T19:15:21.658Z,11.23
2018-12-26T19:17:47.897Z,14.27
2018-12-26T19:20:14.510Z,12.07
2018-12-26T19:22:41.098Z,12.67
2018-12-26T19:25:07.359Z,13.93
2018-12-26T19:27:33.582Z,13.23
2018-12-26T19:30:00.210Z,14.57
2018-12-26T19:32:26.451Z,15.90
2018-12-26T19:34:53.342Z,13.53
2018-12-26T19:37:20.229Z,11.73
2018-12-26T19:39:46.855Z,13.37
2018-12-26T19:42:13.085Z,16.13
2018-12-26T19:44:39.321Z,10.77
2018-12-26T19:47:06.225Z,12.67
2018-12-26T19:49:32.511Z,13.77
2018-12-26T19:51:59.147Z,13.47
2018-12-26T19:54:25.370Z,13.50
2018-12-26T19:56:52.013Z,11.17
2018-12-26T19:59:18.606Z,11.37
2018-12-26T20:01:48.319Z,10.07
2018-12-26T20:04:13.249Z,12.13
2018-12-26T20:06:39.868Z,11.63
2018-12-26T20:09:06.465Z,15.10
2018-12-26T20:11:32.717Z,14.80
2018-12-26T20:13:59.298Z,12.43
2018-12-26T20:16:25.909Z,12.53
2018-12-26T20:18:52.493Z,12.50
2018-12-26T20:21:18.753Z,13.13
2018-12-26T20:23:45.601Z,13.27
2018-12-26T20:26:12.212Z,11.93
2018-12-26T20:28:38.818Z,12.33
2018-12-26T20:31:05.533Z,13.03
2018-12-26T20:33:31.782Z,11.93
2018-12-26T20:35:58.138Z,10.40
2018-12-26T20:38:24.370Z,11.07
2018-12-26T20:40:50.711Z,10.70
2018-12-26T20:43:17.273Z,10.77
2018-12-26T20:45:43.509Z,11.50
2018-12-26T20:48:10.133Z,11.10
2018-12-26T20:50:36.393Z,13.77
2018-12-26T20:53:03.015Z,11.03
2018-12-26T20:55:29.269Z,11.77
2018-12-26T20:57:55.899Z,10.40
2018-12-26T21:00:22.481Z,11.00
2018-12-26T21:02:49.116Z,12.40
2018-12-26T21:05:15.345Z,13.57
2018-12-26T21:07:41.958Z,10.10
2018-12-26T21:10:08.653Z,12.70
2018-12-26T21:12:35.272Z,11.73
2018-12-26T21:15:01.512Z,10.40
2018-12-26T21:17:28.134Z,9.80
2018-12-26T21:19:54.720Z,9.23
2018-12-26T21:22:20.983Z,10.60
2018-12-26T21:24:47.568Z,10.63
2018-12-26T21:27:13.819Z,9.20
2018-12-26T21:29:40.057Z,11.13
2018-12-26T21:32:14.009Z,10.63
2018-12-26T21:34:34.710Z,12.53
2018-12-26T21:37:01.321Z,12.87
2018-12-26T21:39:27.545Z,10.37
2018-12-26T21:41:54.137Z,9.17
2018-12-26T21:44:20.748Z,9.63
2018-12-26T21:46:47.341Z,12.73
2018-12-26T21:49:13.961Z,9.87
2018-12-26T21:51:40.573Z,10.90
2018-12-26T21:54:06.834Z,11.00
2018-12-26T21:56:35.485Z,10.53
2018-12-26T21:59:02.047Z,11.33
2018-12-26T22:01:28.266Z,11.77
2018-12-26T22:03:54.896Z,10.60
2018-12-26T22:06:21.134Z,11.10
2018-12-26T22:08:47.384Z,11.00
2018-12-26T22:11:13.989Z,10.13
2018-12-26T22:13:40.616Z,9.57
2018-12-26T22:16:06.750Z,10.67
2018-12-26T22:18:33.385Z,8.80
2018-12-26T22:20:59.598Z,8.83
2018-12-26T22:23:25.861Z,11.03
2018-12-26T22:25:52.448Z,10.50
2018-12-26T22:28:19.062Z,10.13
2018-12-26T22:30:45.654Z,9.47
2018-12-26T22:33:12.269Z,12.63
2018-12-26T22:35:38.501Z,12.67
2018-12-26T22:38:04.844Z,11.60
2018-12-26T22:40:31.090Z,10.70
2018-12-26T22:42:57.682Z,10.23
2018-12-26T22:45:24.298Z,10.20
2018-12-26T22:47:50.526Z,9.10
2018-12-26T22:50:16.803Z,10.50
2018-12-26T22:52:43.441Z,10.20
2018-12-26T22:55:09.701Z,9.90
2018-12-26T22:57:36.330Z,9.87
2018-12-26T23:00:04.847Z,9.77
2018-12-26T23:02:38.655Z,10.03
2018-12-26T23:04:59.513Z,9.93
2018-12-26T23:07:25.749Z,9.13
2018-12-26T23:09:52.417Z,9.90
2018-12-26T23:12:18.650Z,8.30
2018-12-26T23:14:44.914Z,8.97
2018-12-26T23:17:11.501Z,10.17
2018-12-26T23:19:38.114Z,9.83
2018-12-26T23:22:04.354Z,9.97
2018-12-26T23:24:30.605Z,8.47
2018-12-26T23:26:56.849Z,8.90
2018-12-26T23:29:23.357Z,10.97
2018-12-26T23:31:49.594Z,8.03
2018-12-26T23:34:15.819Z,8.83
2018-12-26T23:36:42.083Z,9.03
2018-12-26T23:39:08.309Z,7.70
2018-12-26T23:41:34.574Z,8.33
2018-12-26T23:44:01.163Z,8.37
2018-12-26T23:46:27.781Z,7.87
2018-12-26T23:48:54.369Z,6.50
2018-12-26T23:51:20.645Z,7.43
2018-12-26T23:53:46.978Z,6.87
2018-12-26T23:56:13.635Z,6.73
2018-12-26T23:58:40.221Z,6.50
